createdAt,value
2019-04-05T00:00:39.721Z,100781.94
2019-04-05T00:03:11.462Z,100779.87
2019-04-05T00:05:42.811Z,100782.91
2019-04-05T00:08:14.029Z,100779.53
2019-04-05T00:10:45.985Z,100783.91
2019-04-05T00:13:17.224Z,100782.67
2019-04-05T00:15:52.593Z,100785.06
2019-04-05T00:18:23.881Z,100779.61
2019-04-05T00:20:55.227Z,100781.80
2019-04-05T00:23:26.446Z,100780.02
2019-04-05T00:25:58.083Z,100787.36
2019-04-05T00:28:29.530Z,100800.09
2019-04-05T00:31:00.910Z,100790.94
2019-04-05T00:33:32.276Z,100793.32
2019-04-05T00:36:03.575Z,100795.02
2019-04-05T00:38:35.906Z,100792.53
2019-04-05T00:41:07.269Z,100793.83
2019-04-05T00:43:38.724Z,100798.92
2019-04-05T00:46:10.202Z,100792.31
2019-04-05T00:48:41.665Z,100796.61
2019-04-05T00:51:13.044Z,100796.81
2019-04-05T00:53:44.511Z,100795.22
2019-04-05T00:56:15.919Z,100801.69
2019-04-05T00:58:47.197Z,100805.22
2019-04-05T01:01:18.634Z,100801.38
2019-04-05T01:03:50.010Z,100800.55
2019-04-05T01:06:21.360Z,100798.00
2019-04-05T01:08:52.653Z,100801.52
2019-04-05T01:11:24.109Z,100800.27
2019-04-05T01:13:55.460Z,100793.84
2019-04-05T01:16:26.734Z,100799.49
2019-04-05T01:18:58.163Z,100801.19
2019-04-05T01:21:31.015Z,100803.37
2019-04-05T01:24:02.744Z,100803.38
2019-04-05T01:26:34.178Z,100798.66
2019-04-05T01:29:05.527Z,100802.55
2019-04-05T01:31:36.947Z,100802.14
2019-04-05T01:34:08.316Z,100805.58
2019-04-05T01:36:39.695Z,100805.19
2019-04-05T01:39:11.069Z,100802.16
2019-04-05T01:41:42.493Z,100804.31
2019-04-05T01:44:13.815Z,100803.44
2019-04-05T01:46:45.276Z,100811.17
2019-04-05T01:49:16.555Z,100806.03
2019-04-05T01:51:47.915Z,100809.89
2019-04-05T01:54:19.226Z,100809.44
2019-04-05T01:56:50.432Z,100812.03
2019-04-05T01:59:21.787Z,100814.64
2019-04-05T02:01:53.159Z,100810.78
2019-04-05T02:04:24.565Z,100817.66
2019-04-05T02:06:56.000Z,100825.39
2019-04-05T02:09:27.345Z,100824.95
2019-04-05T02:11:58.647Z,100824.55
2019-04-05T02:14:30.070Z,100822.82
2019-04-05T02:17:01.371Z,100821.54
2019-04-05T02:19:32.712Z,100827.11
2019-04-05T02:22:04.011Z,100826.67
2019-04-05T02:24:35.435Z,100832.27
2019-04-05T02:27:06.809Z,100833.13
2019-04-05T02:29:38.185Z,100829.27
2019-04-05T02:32:10.633Z,100831.82
2019-04-05T02:34:41.924Z,100835.26
2019-04-05T02:37:13.277Z,100837.39
2019-04-05T02:39:44.685Z,100836.08
2019-04-05T02:42:16.107Z,100840.80
2019-04-05T02:44:47.455Z,100845.10
2019-04-05T02:47:18.878Z,100851.58
2019-04-05T02:49:50.220Z,100853.76
2019-04-05T02:52:21.670Z,100855.45
2019-04-05T02:54:53.000Z,100862.30
2019-04-05T02:57:24.349Z,100862.33
2019-04-05T02:59:55.670Z,100864.91
2019-04-05T03:02:26.971Z,100866.23
2019-04-05T03:04:58.294Z,100863.22
2019-04-05T03:07:29.656Z,100868.35
2019-04-05T03:10:01.071Z,100869.62
2019-04-05T03:12:32.486Z,100871.77
2019-04-05T03:15:04.480Z,100868.77
2019-04-05T03:17:35.813Z,100874.33
2019-04-05T03:20:07.403Z,100879.91
2019-04-05T03:22:38.864Z,100883.80
2019-04-05T03:25:10.132Z,100879.91
2019-04-05T03:27:41.537Z,100885.95
2019-04-05T03:30:12.829Z,100893.67
2019-04-05T03:32:44.179Z,100901.45
2019-04-05T03:35:15.616Z,100903.20
2019-04-05T03:37:47.112Z,100907.09
2019-04-05T03:40:18.563Z,100909.24
2019-04-05T03:42:49.989Z,100904.06
2019-04-05T03:45:21.273Z,100902.28
2019-04-05T03:47:52.594Z,100906.83
2019-04-05T03:50:23.885Z,100909.52
2019-04-05T03:52:55.233Z,100909.23
2019-04-05T03:55:26.659Z,100907.95
2019-04-05T03:57:57.988Z,100912.48
2019-04-05T04:00:29.350Z,100916.47
2019-04-05T04:03:00.799Z,100921.68
2019-04-05T04:05:32.219Z,100917.63
2019-04-05T04:08:03.712Z,100917.91
2019-04-05T04:10:35.009Z,100918.30
2019-04-05T04:13:06.401Z,100921.77
2019-04-05T04:15:37.791Z,100929.39
2019-04-05T04:18:09.310Z,100921.07
2019-04-05T04:20:49.255Z,100927.25
2019-04-05T04:23:23.778Z,100930.37
2019-04-05T04:25:55.204Z,100924.08
2019-04-05T04:28:26.863Z,100928.29
2019-04-05T04:30:58.201Z,100927.23
2019-04-05T04:33:29.479Z,100887.03
2019-04-05T04:36:01.499Z,100924.66
2019-04-05T04:38:32.824Z,100929.53
2019-04-05T04:41:04.117Z,100928.39
2019-04-05T04:43:35.449Z,100929.61
2019-04-05T04:46:07.511Z,100930.34
2019-04-05T04:48:40.142Z,100926.25
2019-04-05T04:51:11.439Z,100931.70
2019-04-05T04:53:42.876Z,100926.34
2019-04-05T04:56:14.264Z,100928.80
2019-04-05T04:58:46.382Z,100934.63
2019-04-05T05:01:17.845Z,100930.61
2019-04-05T05:03:49.220Z,100934.87
2019-04-05T05:06:20.657Z,100935.50
2019-04-05T05:08:52.155Z,100931.11
2019-04-05T05:11:23.398Z,100934.33
2019-04-05T05:13:54.790Z,100937.09
2019-04-05T05:16:26.012Z,100935.67
2019-04-05T05:18:57.326Z,100934.27
2019-04-05T05:21:28.563Z,100938.92
2019-04-05T05:23:59.984Z,100934.91
2019-04-05T05:26:31.294Z,100933.16
2019-04-05T05:29:02.666Z,100936.33
2019-04-05T05:31:33.965Z,100939.36
2019-04-05T05:34:06.321Z,100940.52
2019-04-05T05:36:37.676Z,100942.38
2019-04-05T05:39:09.108Z,100934.52
2019-04-05T05:41:40.504Z,100938.86
2019-04-05T05:44:11.805Z,100941.62
2019-04-05T05:46:43.107Z,100940.23
2019-04-05T05:49:14.463Z,100943.57
2019-04-05T05:51:47.124Z,100942.54
2019-04-05T05:54:18.366Z,100944.81
2019-04-05T05:56:49.834Z,100953.70
2019-04-05T05:59:21.130Z,100954.55
2019-04-05T06:01:52.553Z,100946.00
2019-04-05T06:04:23.920Z,100950.80
2019-04-05T06:06:55.288Z,100942.93
2019-04-05T06:09:27.269Z,100941.85
2019-04-05T06:11:58.687Z,100945.37
2019-04-05T06:14:30.152Z,100945.87
2019-04-05T06:17:02.828Z,100946.98
2019-04-05T06:19:35.167Z,100941.70
2019-04-05T06:22:06.538Z,100947.31
2019-04-05T06:24:37.847Z,100947.38
2019-04-05T06:27:09.214Z,100945.82
2019-04-05T06:29:40.504Z,100946.05
2019-04-05T06:32:11.978Z,100949.48
2019-04-05T06:34:44.935Z,100951.68
2019-04-05T06:37:18.055Z,100951.81
2019-04-05T06:39:49.528Z,100958.83
2019-04-05T06:42:20.899Z,100949.30
2019-04-05T06:44:52.359Z,100947.78
2019-04-05T06:47:23.633Z,100945.45
2019-04-05T06:49:54.923Z,100944.50
2019-04-05T06:52:26.213Z,100947.69
2019-04-05T06:54:57.614Z,100948.73
2019-04-05T06:57:29.353Z,100953.00
2019-04-05T07:00:00.752Z,100951.53
2019-04-05T07:02:33.679Z,100955.92
2019-04-05T07:05:06.856Z,100950.32
2019-04-05T07:07:38.270Z,100957.45
2019-04-05T07:10:09.628Z,100958.34
2019-04-05T07:12:40.956Z,100962.19
2019-04-05T07:15:12.239Z,100959.48
2019-04-05T07:17:43.698Z,100963.52
2019-04-05T07:20:15.741Z,100965.11
2019-04-05T07:22:47.087Z,100959.77
2019-04-05T07:25:19.334Z,100963.89
2019-04-05T07:27:50.616Z,100963.22
2019-04-05T07:30:22.051Z,100969.04
2019-04-05T07:32:53.358Z,100966.09
2019-04-05T07:35:33.228Z,100966.61
2019-04-05T07:37:57.750Z,100962.30
2019-04-05T07:40:29.156Z,100960.60
2019-04-05T07:43:00.504Z,100960.20
2019-04-05T07:45:32.930Z,100959.23
2019-04-05T07:48:05.201Z,100958.17
2019-04-05T07:50:36.819Z,100961.17
2019-04-05T07:53:08.167Z,100957.55
2019-04-05T07:55:39.520Z,100958.15
2019-04-05T07:58:10.877Z,100965.31
2019-04-05T08:00:46.283Z,100958.75
2019-04-05T08:03:18.347Z,100959.79
2019-04-05T08:05:50.024Z,100958.31
2019-04-05T08:08:41.330Z,100956.11
2019-04-05T08:11:12.741Z,100954.97
2019-04-05T08:13:44.289Z,100953.78
2019-04-05T08:16:15.543Z,100963.27
2019-04-05T08:18:57.122Z,100964.84
2019-04-05T08:21:19.956Z,100959.47
2019-04-05T08:23:51.237Z,100952.15
2019-04-05T08:26:22.767Z,100947.38
2019-04-05T08:28:54.051Z,100949.46
2019-04-05T08:31:25.315Z,100950.20
2019-04-05T08:33:58.275Z,100939.86
2019-04-05T08:36:32.594Z,100945.61
2019-04-05T08:39:02.674Z,100947.54
2019-04-05T08:41:34.645Z,100949.55
2019-04-05T08:44:06.018Z,100940.06
2019-04-05T08:46:37.291Z,100951.48
2019-04-05T08:49:10.946Z,100940.61
2019-04-05T08:51:41.694Z,100943.70
2019-04-05T08:54:12.961Z,100946.30
2019-04-05T08:56:44.309Z,100943.53
2019-04-05T08:59:15.947Z,100940.61
2019-04-05T09:01:47.082Z,100936.86
2019-04-05T09:04:18.457Z,100941.80
2019-04-05T09:06:49.776Z,100932.02
2019-04-05T09:09:20.994Z,100934.81
2019-04-05T09:11:53.192Z,100938.00
2019-04-05T09:14:24.618Z,100930.28
2019-04-05T09:16:55.866Z,100931.73
2019-04-05T09:19:27.284Z,100929.69
2019-04-05T09:21:59.831Z,100934.95
2019-04-05T09:24:31.115Z,100930.93
2019-04-05T09:27:02.542Z,100930.28
2019-04-05T09:29:33.762Z,100926.88
2019-04-05T09:32:05.197Z,100918.64
2019-04-05T09:34:36.589Z,100923.08
2019-04-05T09:37:08.426Z,100920.48
2019-04-05T09:39:40.715Z,100917.25
2019-04-05T09:42:13.188Z,100917.48
2019-04-05T09:44:44.501Z,100917.38
2019-04-05T09:47:16.009Z,100926.82
2019-04-05T09:49:47.283Z,100921.79
2019-04-05T09:52:18.616Z,100921.42
2019-04-05T09:54:50.752Z,100923.66
2019-04-05T09:57:22.081Z,100919.31
2019-04-05T09:59:53.467Z,100916.27
2019-04-05T10:02:24.825Z,100921.79
2019-04-05T10:04:56.097Z,100922.31
2019-04-05T10:07:27.435Z,100912.00
2019-04-05T10:09:58.738Z,100914.34
2019-04-05T10:12:30.199Z,100911.40
2019-04-05T10:15:01.476Z,100920.27
2019-04-05T10:17:33.912Z,100913.43
2019-04-05T10:20:06.929Z,100913.27
2019-04-05T10:22:38.239Z,100909.20
2019-04-05T10:25:09.519Z,100909.08
2019-04-05T10:27:40.951Z,100910.89
2019-04-05T10:30:12.182Z,100908.59
2019-04-05T10:32:45.961Z,100902.55
2019-04-05T10:35:16.485Z,100899.01
2019-04-05T10:37:47.734Z,100901.17
2019-04-05T10:40:19.130Z,100899.73
2019-04-05T10:42:50.538Z,100896.16
2019-04-05T10:45:21.849Z,100892.58
2019-04-05T10:47:54.202Z,100899.00
2019-04-05T10:50:25.416Z,100896.43
2019-04-05T10:52:56.750Z,100892.61
2019-04-05T10:55:28.038Z,100892.28
2019-04-05T10:57:59.291Z,100899.00
2019-04-05T11:00:30.558Z,100889.29
2019-04-05T11:03:01.906Z,100890.28
2019-04-05T11:05:33.161Z,100891.05
2019-04-05T11:08:04.559Z,100891.97
2019-04-05T11:10:35.894Z,100893.39
2019-04-05T11:13:07.193Z,100886.53
2019-04-05T11:15:38.445Z,100893.39
2019-04-05T11:18:09.792Z,100885.30
2019-04-05T11:20:40.953Z,100882.14
2019-04-05T11:23:13.242Z,100881.75
2019-04-05T11:25:52.977Z,100872.28
2019-04-05T11:28:25.757Z,100873.59
2019-04-05T11:30:56.966Z,100869.38
2019-04-05T11:33:28.306Z,100873.36
2019-04-05T11:35:59.584Z,100863.48
2019-04-05T11:38:30.975Z,100872.41
2019-04-05T11:41:02.273Z,100862.59
2019-04-05T11:43:34.103Z,100858.61
2019-04-05T11:46:05.296Z,100857.57
2019-04-05T11:48:37.762Z,100858.58
2019-04-05T11:51:09.072Z,100852.06
2019-04-05T11:53:40.361Z,100845.52
2019-04-05T11:56:14.796Z,100849.05
2019-04-05T11:58:48.655Z,100847.78
2019-04-05T12:01:37.347Z,100849.16
2019-04-05T12:04:08.702Z,100850.37
2019-04-05T12:06:40.047Z,100851.13
2019-04-05T12:09:11.400Z,100850.02
2019-04-05T12:11:42.742Z,100846.27
2019-04-05T12:14:14.093Z,100841.91
2019-04-05T12:16:45.372Z,100839.15
2019-04-05T12:19:16.718Z,100839.62
2019-04-05T12:21:48.033Z,100842.30
2019-04-05T12:24:21.958Z,100838.91
2019-04-05T12:26:53.265Z,100830.77
2019-04-05T12:29:24.536Z,100837.80
2019-04-05T12:31:56.931Z,100839.27
2019-04-05T12:34:28.691Z,100832.86
2019-04-05T12:37:00.431Z,100830.69
2019-04-05T12:39:31.797Z,100826.08
2019-04-05T12:42:03.142Z,100828.41
2019-04-05T12:44:34.420Z,100831.16
2019-04-05T12:47:05.854Z,100825.35
2019-04-05T12:49:37.181Z,100827.17
2019-04-05T12:52:21.588Z,100828.98
2019-04-05T12:54:41.783Z,100822.46
2019-04-05T12:57:13.288Z,100827.53
2019-04-05T12:59:44.573Z,100823.19
2019-04-05T13:02:20.599Z,100821.87
2019-04-05T13:04:50.132Z,100817.86
2019-04-05T13:07:22.790Z,100812.48
2019-04-05T13:09:56.591Z,100814.52
2019-04-05T13:12:27.932Z,100816.84
2019-04-05T13:15:11.213Z,100818.05
2019-04-05T13:17:32.373Z,100811.58
2019-04-05T13:20:05.020Z,100811.80
2019-04-05T13:22:36.348Z,100807.85
2019-04-05T13:25:10.843Z,100807.72
2019-04-05T13:27:42.278Z,100806.63
2019-04-05T13:30:13.993Z,100806.66
2019-04-05T13:32:46.468Z,100809.77
2019-04-05T13:35:17.701Z,100803.59
2019-04-05T13:37:49.120Z,100804.20
2019-04-05T13:40:20.369Z,100805.59
2019-04-05T13:42:51.654Z,100807.19
2019-04-05T13:45:22.946Z,100812.73
2019-04-05T13:47:54.372Z,100810.05
2019-04-05T13:50:25.728Z,100809.81
2019-04-05T13:52:57.029Z,100804.02
2019-04-05T13:55:28.382Z,100803.08
2019-04-05T13:58:00.968Z,100807.67
2019-04-05T14:00:32.666Z,100804.80
2019-04-05T14:03:04.458Z,100799.37
2019-04-05T14:05:36.331Z,100798.59
2019-04-05T14:08:11.047Z,100805.28
2019-04-05T14:10:41.901Z,100805.51
2019-04-05T14:13:13.584Z,100801.25
2019-04-05T14:15:44.852Z,100806.25
2019-04-05T14:18:16.177Z,100807.31
2019-04-05T14:20:49.583Z,100805.88
2019-04-05T14:23:24.089Z,100807.63
2019-04-05T14:26:00.340Z,100800.83
2019-04-05T14:28:34.011Z,100815.03
2019-04-05T14:31:05.425Z,100804.30
2019-04-05T14:33:36.879Z,100807.59
2019-04-05T14:36:08.265Z,100805.20
2019-04-05T14:38:39.693Z,100807.22
2019-04-05T14:41:11.009Z,100806.31
2019-04-05T14:43:44.540Z,100805.52
2019-04-05T14:46:17.600Z,100810.75
2019-04-05T14:48:49.021Z,100812.04
2019-04-05T14:51:20.322Z,100814.14
2019-04-05T14:53:51.665Z,100810.58
2019-04-05T14:56:22.986Z,100814.11
2019-04-05T14:58:55.340Z,100810.24
2019-04-05T15:01:26.577Z,100806.20
2019-04-05T15:03:57.882Z,100809.98
2019-04-05T15:06:29.307Z,100813.00
2019-04-05T15:09:02.189Z,100812.06
2019-04-05T15:11:34.896Z,100812.47
2019-04-05T15:14:06.127Z,100809.44
2019-04-05T15:16:39.733Z,100815.65
2019-04-05T15:19:12.437Z,100811.93
2019-04-05T15:21:44.982Z,100805.53
2019-04-05T15:24:17.182Z,100812.63
2019-04-05T15:26:51.510Z,100811.00
2019-04-05T15:29:25.861Z,100802.70
2019-04-05T15:31:56.383Z,100805.27
2019-04-05T15:34:29.027Z,100807.30
2019-04-05T15:37:01.562Z,100811.31
2019-04-05T15:39:33.794Z,100817.79
2019-04-05T15:42:06.721Z,100814.66
2019-04-05T15:44:38.105Z,100811.85
2019-04-05T15:47:09.541Z,100815.98
2019-04-05T15:49:41.228Z,100813.14
2019-04-05T15:52:18.674Z,100811.80
2019-04-05T15:54:45.522Z,100811.60
2019-04-05T15:57:16.960Z,100815.89
2019-04-05T15:59:48.328Z,100808.59
2019-04-05T16:02:19.734Z,100817.30
2019-04-05T16:04:52.593Z,100817.08
2019-04-05T16:07:23.952Z,100820.18
2019-04-05T16:09:55.257Z,100818.86
2019-04-05T16:12:26.462Z,100822.54
2019-04-05T16:14:57.841Z,100839.91
2019-04-05T16:17:32.913Z,100817.79
2019-04-05T16:20:08.986Z,100824.95
2019-04-05T16:22:40.403Z,100817.52
2019-04-05T16:25:11.656Z,100817.52
2019-04-05T16:27:43.003Z,100822.80
2019-04-05T16:30:15.362Z,100830.09
2019-04-05T16:32:46.655Z,100828.96
2019-04-05T16:35:18.614Z,100830.98
2019-04-05T16:37:49.754Z,100838.75
2019-04-05T16:40:21.990Z,100840.96
2019-04-05T16:43:02.393Z,100840.96
2019-04-05T16:45:28.406Z,100846.47
2019-04-05T16:47:59.639Z,100850.80
2019-04-05T16:50:32.049Z,100850.94
2019-04-05T16:53:03.838Z,100853.95
2019-04-05T16:55:36.755Z,100861.28
2019-04-05T16:58:08.850Z,100859.45
2019-04-05T17:00:41.173Z,100860.77
2019-04-05T17:03:12.489Z,100865.42
2019-04-05T17:05:43.953Z,100864.34
2019-04-05T17:08:15.273Z,100875.41
2019-04-05T17:10:46.748Z,100877.98
2019-04-05T17:13:18.073Z,100878.94
2019-04-05T17:15:49.425Z,100882.77
2019-04-05T17:18:20.734Z,100878.19
2019-04-05T17:20:52.092Z,100884.10
2019-04-05T17:23:23.553Z,100883.48
2019-04-05T17:25:54.847Z,100883.02
2019-04-05T17:28:28.403Z,100879.77
2019-04-05T17:31:00.798Z,100883.12
2019-04-05T17:33:35.505Z,100885.29
2019-04-05T17:36:06.889Z,100884.11
2019-04-05T17:38:39.323Z,100883.64
2019-04-05T17:41:12.062Z,100882.02
2019-04-05T17:43:45.037Z,100893.61
2019-04-05T17:46:16.416Z,100888.30
2019-04-05T17:48:51.736Z,100888.33
2019-04-05T17:51:23.513Z,100882.13
2019-04-05T17:53:56.193Z,100883.21
2019-04-05T17:56:27.518Z,100886.52
2019-04-05T17:58:58.797Z,100888.61
2019-04-05T18:01:30.195Z,100887.97
2019-04-05T18:04:01.522Z,100887.83
2019-04-05T18:06:32.934Z,100887.57
2019-04-05T18:09:05.544Z,100892.64
2019-04-05T18:11:37.450Z,100891.13
2019-04-05T18:14:08.834Z,100889.63
2019-04-05T18:16:40.192Z,100890.81
2019-04-05T18:19:11.608Z,100893.08
2019-04-05T18:21:44.065Z,100894.77
2019-04-05T18:24:15.381Z,100892.36
2019-04-05T18:26:46.684Z,100895.54
2019-04-05T18:29:20.633Z,100897.31
2019-04-05T18:31:54.955Z,100891.52
2019-04-05T18:34:28.200Z,100895.83
2019-04-05T18:37:00.920Z,100897.52
2019-04-05T18:39:32.311Z,100899.71
2019-04-05T18:42:05.227Z,100897.94
2019-04-05T18:44:36.541Z,100900.53
2019-04-05T18:47:08.975Z,100897.56
2019-04-05T18:49:42.120Z,100906.69
2019-04-05T18:52:13.828Z,100901.86
2019-04-05T18:54:45.264Z,100908.22
2019-04-05T18:57:16.587Z,100914.52
2019-04-05T18:59:48.001Z,100909.39
2019-04-05T19:02:19.415Z,100911.70
2019-04-05T19:04:51.321Z,100913.38
2019-04-05T19:07:23.929Z,100911.62
2019-04-05T19:09:55.292Z,100913.11
2019-04-05T19:12:26.690Z,100915.30
2019-04-05T19:14:59.254Z,100915.43
2019-04-05T19:17:31.037Z,100923.41
2019-04-05T19:20:04.112Z,100919.32
2019-04-05T19:22:35.940Z,100928.56
2019-04-05T19:25:08.762Z,100921.57
2019-04-05T19:27:40.116Z,100923.50
2019-04-05T19:50:37.824Z,100920.78
2019-04-05T19:53:11.034Z,100919.20
2019-04-05T19:55:42.428Z,100917.50
2019-04-05T19:58:13.679Z,100918.91
2019-04-05T20:00:44.964Z,100922.70
2019-04-05T20:03:16.371Z,100922.53
2019-04-05T20:05:47.785Z,100922.16
2019-04-05T20:08:19.446Z,100918.22
2019-04-05T20:10:51.346Z,100917.20
2019-04-05T20:13:22.798Z,100916.08
2019-04-05T20:15:54.492Z,100919.75
2019-04-05T20:18:26.089Z,100918.67
2019-04-05T20:20:59.084Z,100918.34
2019-04-05T20:23:30.716Z,100915.70
2019-04-05T20:26:02.038Z,100916.31
2019-04-05T20:28:33.458Z,100920.80
2019-04-05T20:31:04.981Z,100925.25
2019-04-05T20:33:36.561Z,100926.23
2019-04-05T20:36:09.069Z,100923.61
2019-04-05T20:38:40.402Z,100930.45
2019-04-05T20:41:11.730Z,100927.64
2019-04-05T20:43:45.291Z,100929.74
2019-04-05T20:46:17.015Z,100923.44
2019-04-05T20:48:48.347Z,100925.41
2019-04-05T20:51:20.651Z,100927.38
2019-04-05T20:53:55.473Z,100924.63
2019-04-05T20:56:27.441Z,100925.50
2019-04-05T20:58:58.794Z,100924.45
2019-04-05T21:01:30.255Z,100923.39
2019-04-05T21:04:01.459Z,100928.36
2019-04-05T21:06:32.928Z,100928.20
2019-04-05T21:09:05.967Z,100921.92
2019-04-05T21:11:38.058Z,100926.38
2019-04-05T21:14:09.763Z,100919.28
2019-04-05T21:16:41.115Z,100922.30
2019-04-05T21:19:12.846Z,100919.31
2019-04-05T21:21:44.269Z,100916.58
2019-04-05T21:24:16.279Z,100920.89
2019-04-05T21:26:47.712Z,100931.70
2019-04-05T21:29:19.022Z,100925.27
2019-04-05T21:31:50.485Z,100921.37
2019-04-05T21:34:21.772Z,100925.05
2019-04-05T21:36:53.078Z,100927.16
2019-04-05T21:39:24.505Z,100926.62
2019-04-05T21:41:57.836Z,100928.09
2019-04-05T21:44:29.228Z,100927.22
2019-04-05T21:47:00.455Z,100927.67
2019-04-05T21:49:31.711Z,100922.13
2019-04-05T21:52:03.258Z,100927.09
2019-04-05T21:54:34.879Z,100931.33
2019-04-05T21:57:06.391Z,100925.98
2019-04-05T21:59:37.947Z,100924.83
2019-04-05T22:02:09.503Z,100933.80
2019-04-05T22:04:41.067Z,100936.00
2019-04-05T22:07:12.771Z,100938.30
2019-04-05T22:09:44.358Z,100934.61
2019-04-05T22:12:16.165Z,100937.59
2019-04-05T22:14:47.747Z,100944.88
2019-04-05T22:17:19.286Z,100938.73
2019-04-05T22:19:50.912Z,100940.22
2019-04-05T22:22:22.494Z,100936.56
2019-04-05T22:24:59.243Z,100939.37
2019-04-05T22:27:27.267Z,100936.66
2019-04-05T22:29:58.835Z,100938.70
2019-04-05T22:32:30.443Z,100936.86
2019-04-05T22:35:02.168Z,100943.09
2019-04-05T22:37:33.748Z,100940.25
2019-04-05T22:40:06.872Z,100935.20
2019-04-05T22:42:38.450Z,100946.20
2019-04-05T22:45:10.180Z,100940.28
2019-04-05T22:47:41.693Z,100943.59
2019-04-05T22:50:14.149Z,100944.14
2019-04-05T22:52:46.954Z,100954.73
2019-04-05T22:55:18.607Z,100949.34
2019-04-05T22:57:50.148Z,100945.29
2019-04-05T23:00:21.875Z,100944.23
2019-04-05T23:02:53.426Z,100946.31
2019-04-05T23:05:25.039Z,100954.12
2019-04-05T23:07:56.667Z,100959.41
2019-04-05T23:10:28.186Z,100955.65
2019-04-05T23:12:59.732Z,100947.34
2019-04-05T23:15:31.311Z,100957.58
2019-04-05T23:18:02.940Z,100949.73
2019-04-05T23:20:34.608Z,100948.33
2019-04-05T23:23:06.176Z,100949.95
2019-04-05T23:25:37.832Z,100951.28
2019-04-05T23:28:09.375Z,100951.06
2019-04-05T23:30:41.038Z,100947.23
2019-04-05T23:33:12.620Z,100953.23
2019-04-05T23:35:44.205Z,100951.39
2019-04-05T23:38:15.818Z,100947.40
2019-04-05T23:40:47.379Z,100946.36
2019-04-05T23:43:18.950Z,100948.99
2019-04-05T23:45:50.589Z,100954.60
2019-04-05T23:48:22.157Z,100951.14
2019-04-05T23:50:53.737Z,100950.89
2019-04-05T23:53:25.237Z,100948.93
2019-04-05T23:55:57.868Z,100952.45
2019-04-05T23:58:29.412Z,100951.30
